sensor_id;sensor_type;location;lat;lon;timestamp;P1;durP1;ratioP1;P2;durP2;ratioP2
14247;SDS011;7208;49.826;6.004;2024-01-25T00:01:09;3.53;;;1.20;;
14247;SDS011;7208;49.826;6.004;2024-01-25T00:03:35;8.10;;;1.80;;
14247;SDS011;7208;49.826;6.004;2024-01-25T00:06:01;16.87;;;2.00;;
14247;SDS011;7208;49.826;6.004;2024-01-25T00:08:27;10.33;;;1.47;;
14247;SDS011;7208;49.826;6.004;2024-01-25T00:10:53;7.77;;;1.20;;
14247;SDS011;7208;49.826;6.004;2024-01-25T00:13:19;7.83;;;1.30;;
14247;SDS011;7208;49.826;6.004;2024-01-25T00:15:44;10.27;;;1.90;;
14247;SDS011;7208;49.826;6.004;2024-01-25T00:18:10;10.97;;;1.57;;
14247;SDS011;7208;49.826;6.004;2024-01-25T00:20:35;4.60;;;1.30;;
14247;SDS011;7208;49.826;6.004;2024-01-25T00:23:01;8.87;;;1.43;;
14247;SDS011;7208;49.826;6.004;2024-01-25T00:25:27;2.23;;;1.10;;
14247;SDS011;7208;49.826;6.004;2024-01-25T00:27:53;7.27;;;1.20;;
14247;SDS011;7208;49.826;6.004;2024-01-25T00:30:19;10.70;;;1.50;;
14247;SDS011;7208;49.826;6.004;2024-01-25T00:32:44;10.88;;;2.80;;
14247;SDS011;7208;49.826;6.004;2024-01-25T00:35:10;8.47;;;2.23;;
14247;SDS011;7208;49.826;6.004;2024-01-25T00:37:38;13.30;;;1.93;;
14247;SDS011;7208;49.826;6.004;2024-01-25T00:40:05;13.73;;;1.80;;
14247;SDS011;7208;49.826;6.004;2024-01-25T00:42:31;5.70;;;1.93;;
14247;SDS011;7208;49.826;6.004;2024-01-25T00:45:02;6.93;;;1.30;;
14247;SDS011;7208;49.826;6.004;2024-01-25T00:47:28;5.37;;;1.87;;
14247;SDS011;7208;49.826;6.004;2024-01-25T00:49:54;7.23;;;1.03;;
14247;SDS011;7208;49.826;6.004;2024-01-25T00:52:20;4.43;;;1.53;;
14247;SDS011;7208;49.826;6.004;2024-01-25T00:54:46;4.23;;;1.13;;
14247;SDS011;7208;49.826;6.004;2024-01-25T00:57:12;8.53;;;1.80;;
14247;SDS011;7208;49.826;6.004;2024-01-25T00:59:37;9.77;;;1.40;;
14247;SDS011;7208;49.826;6.004;2024-01-25T01:02:04;10.37;;;1.73;;
14247;SDS011;7208;49.826;6.004;2024-01-25T01:04:33;9.40;;;1.33;;
14247;SDS011;7208;49.826;6.004;2024-01-25T01:06:58;9.20;;;0.87;;
14247;SDS011;7208;49.826;6.004;2024-01-25T01:09:24;7.27;;;1.20;;
14247;SDS011;7208;49.826;6.004;2024-01-25T01:11:50;6.07;;;0.90;;
14247;SDS011;7208;49.826;6.004;2024-01-25T01:14:17;3.13;;;1.13;;
14247;SDS011;7208;49.826;6.004;2024-01-25T01:16:42;6.30;;;1.63;;
14247;SDS011;7208;49.826;6.004;2024-01-25T01:19:08;8.27;;;1.40;;
14247;SDS011;7208;49.826;6.004;2024-01-25T01:21:34;5.37;;;1.00;;
14247;SDS011;7208;49.826;6.004;2024-01-25T01:24:05;5.33;;;0.80;;
14247;SDS011;7208;49.826;6.004;2024-01-25T01:26:31;6.87;;;2.17;;
14247;SDS011;7208;49.826;6.004;2024-01-25T01:28:57;3.70;;;1.10;;
14247;SDS011;7208;49.826;6.004;2024-01-25T01:31:22;10.33;;;2.03;;
14247;SDS011;7208;49.826;6.004;2024-01-25T01:33:48;5.43;;;1.30;;
14247;SDS011;7208;49.826;6.004;2024-01-25T01:36:14;4.30;;;0.90;;
14247;SDS011;7208;49.826;6.004;2024-01-25T01:38:40;13.90;;;2.47;;
14247;SDS011;7208;49.826;6.004;2024-01-25T01:41:05;6.93;;;1.03;;
14247;SDS011;7208;49.826;6.004;2024-01-25T01:43:31;7.07;;;0.90;;
14247;SDS011;7208;49.826;6.004;2024-01-25T01:45:58;7.17;;;1.47;;
14247;SDS011;7208;49.826;6.004;2024-01-25T01:48:29;2.97;;;1.53;;
14247;SDS011;7208;49.826;6.004;2024-01-25T01:50:55;5.43;;;1.50;;
14247;SDS011;7208;49.826;6.004;2024-01-25T01:53:21;5.33;;;1.20;;
14247;SDS011;7208;49.826;6.004;2024-01-25T01:55:47;2.83;;;0.93;;
14247;SDS011;7208;49.826;6.004;2024-01-25T01:58:13;6.60;;;1.10;;
14247;SDS011;7208;49.826;6.004;2024-01-25T02:00:40;2.60;;;1.20;;
14247;SDS011;7208;49.826;6.004;2024-01-25T02:03:07;11.07;;;1.60;;
14247;SDS011;7208;49.826;6.004;2024-01-25T02:05:33;6.13;;;1.43;;
14247;SDS011;7208;49.826;6.004;2024-01-25T02:07:58;5.37;;;1.80;;
14247;SDS011;7208;49.826;6.004;2024-01-25T02:10:24;1.60;;;1.03;;
14247;SDS011;7208;49.826;6.004;2024-01-25T02:12:50;10.33;;;2.13;;
14247;SDS011;7208;49.826;6.004;2024-01-25T02:15:15;7.60;;;1.03;;
14247;SDS011;7208;49.826;6.004;2024-01-25T02:17:41;5.07;;;1.50;;
14247;SDS011;7208;49.826;6.004;2024-01-25T02:20:07;7.40;;;1.20;;
14247;SDS011;7208;49.826;6.004;2024-01-25T02:22:33;8.90;;;1.83;;
14247;SDS011;7208;49.826;6.004;2024-01-25T02:24:59;7.07;;;1.50;;
14247;SDS011;7208;49.826;6.004;2024-01-25T02:27:25;6.10;;;1.33;;
14247;SDS011;7208;49.826;6.004;2024-01-25T02:29:50;9.87;;;1.70;;
14247;SDS011;7208;49.826;6.004;2024-01-25T02:32:16;3.87;;;1.13;;
14247;SDS011;7208;49.826;6.004;2024-01-25T02:34:42;5.50;;;1.33;;
14247;SDS011;7208;49.826;6.004;2024-01-25T02:37:07;5.53;;;1.03;;
14247;SDS011;7208;49.826;6.004;2024-01-25T02:39:33;8.43;;;1.23;;
14247;SDS011;7208;49.826;6.004;2024-01-25T02:41:59;5.57;;;0.90;;
14247;SDS011;7208;49.826;6.004;2024-01-25T02:44:25;2.13;;;1.30;;
14247;SDS011;7208;49.826;6.004;2024-01-25T02:46:50;9.10;;;1.30;;
14247;SDS011;7208;49.826;6.004;2024-01-25T02:49:16;15.33;;;2.77;;
14247;SDS011;7208;49.826;6.004;2024-01-25T02:51:42;5.33;;;1.27;;
14247;SDS011;7208;49.826;6.004;2024-01-25T02:54:07;6.00;;;0.80;;
14247;SDS011;7208;49.826;6.004;2024-01-25T02:56:33;4.63;;;1.00;;
14247;SDS011;7208;49.826;6.004;2024-01-25T02:59:03;4.87;;;0.80;;
14247;SDS011;7208;49.826;6.004;2024-01-25T03:01:36;4.37;;;1.27;;
14247;SDS011;7208;49.826;6.004;2024-01-25T03:04:03;7.73;;;0.93;;
14247;SDS011;7208;49.826;6.004;2024-01-25T03:06:29;3.57;;;1.07;;
14247;SDS011;7208;49.826;6.004;2024-01-25T03:08:54;7.07;;;1.93;;
14247;SDS011;7208;49.826;6.004;2024-01-25T03:11:20;11.27;;;1.37;;
14247;SDS011;7208;49.826;6.004;2024-01-25T03:13:46;3.00;;;1.17;;
14247;SDS011;7208;49.826;6.004;2024-01-25T03:16:11;7.17;;;1.10;;
14247;SDS011;7208;49.826;6.004;2024-01-25T03:18:37;7.83;;;1.37;;
14247;SDS011;7208;49.826;6.004;2024-01-25T03:21:02;7.37;;;1.60;;
14247;SDS011;7208;49.826;6.004;2024-01-25T03:23:28;7.80;;;1.47;;
14247;SDS011;7208;49.826;6.004;2024-01-25T03:25:54;8.10;;;1.23;;
14247;SDS011;7208;49.826;6.004;2024-01-25T03:28:19;0.93;;;0.60;;
14247;SDS011;7208;49.826;6.004;2024-01-25T03:30:45;3.73;;;0.93;;
14247;SDS011;7208;49.826;6.004;2024-01-25T03:33:13;12.30;;;1.20;;
14247;SDS011;7208;49.826;6.004;2024-01-25T03:35:39;7.07;;;1.50;;
14247;SDS011;7208;49.826;6.004;2024-01-25T03:38:05;10.37;;;1.07;;
14247;SDS011;7208;49.826;6.004;2024-01-25T03:40:30;5.10;;;1.23;;
14247;SDS011;7208;49.826;6.004;2024-01-25T03:42:56;5.93;;;1.17;;
14247;SDS011;7208;49.826;6.004;2024-01-25T03:45:22;7.70;;;1.50;;
14247;SDS011;7208;49.826;6.004;2024-01-25T03:47:47;5.40;;;1.17;;
14247;SDS011;7208;49.826;6.004;2024-01-25T03:50:13;5.80;;;1.30;;
14247;SDS011;7208;49.826;6.004;2024-01-25T03:52:39;12.00;;;1.70;;
14247;SDS011;7208;49.826;6.004;2024-01-25T03:55:05;2.70;;;0.80;;
14247;SDS011;7208;49.826;6.004;2024-01-25T03:57:31;8.60;;;1.03;;
14247;SDS011;7208;49.826;6.004;2024-01-25T03:59:57;1.03;;;0.87;;
14247;SDS011;7208;49.826;6.004;2024-01-25T04:02:22;4.83;;;1.33;;
14247;SDS011;7208;49.826;6.004;2024-01-25T04:04:48;9.20;;;1.90;;
14247;SDS011;7208;49.826;6.004;2024-01-25T04:07:14;9.17;;;1.00;;
14247;SDS011;7208;49.826;6.004;2024-01-25T04:09:40;3.93;;;1.00;;
14247;SDS011;7208;49.826;6.004;2024-01-25T04:12:06;4.73;;;1.20;;
14247;SDS011;7208;49.826;6.004;2024-01-25T04:14:32;5.83;;;0.83;;
14247;SDS011;7208;49.826;6.004;2024-01-25T04:16:58;2.97;;;0.53;;
14247;SDS011;7208;49.826;6.004;2024-01-25T04:19:24;6.53;;;1.30;;
14247;SDS011;7208;49.826;6.004;2024-01-25T04:21:49;7.63;;;2.47;;
14247;SDS011;7208;49.826;6.004;2024-01-25T04:24:15;2.47;;;0.93;;
14247;SDS011;7208;49.826;6.004;2024-01-25T04:26:41;1.10;;;0.60;;
14247;SDS011;7208;49.826;6.004;2024-01-25T04:29:06;15.47;;;2.63;;
14247;SDS011;7208;49.826;6.004;2024-01-25T04:31:32;8.43;;;1.20;;
14247;SDS011;7208;49.826;6.004;2024-01-25T04:33:58;3.90;;;0.83;;
14247;SDS011;7208;49.826;6.004;2024-01-25T04:36:23;10.27;;;1.40;;
14247;SDS011;7208;49.826;6.004;2024-01-25T04:38:49;6.50;;;1.03;;
14247;SDS011;7208;49.826;6.004;2024-01-25T04:41:15;5.17;;;1.07;;
14247;SDS011;7208;49.826;6.004;2024-01-25T04:43:40;4.17;;;1.47;;
14247;SDS011;7208;49.826;6.004;2024-01-25T04:46:06;7.83;;;2.80;;
14247;SDS011;7208;49.826;6.004;2024-01-25T04:48:32;4.60;;;1.43;;
14247;SDS011;7208;49.826;6.004;2024-01-25T04:50:58;9.43;;;1.10;;
14247;SDS011;7208;49.826;6.004;2024-01-25T04:53:24;1.87;;;1.03;;
14247;SDS011;7208;49.826;6.004;2024-01-25T04:55:50;6.97;;;1.60;;
14247;SDS011;7208;49.826;6.004;2024-01-25T04:58:16;4.47;;;0.93;;
14247;SDS011;7208;49.826;6.004;2024-01-25T05:00:41;1.23;;;0.87;;
14247;SDS011;7208;49.826;6.004;2024-01-25T05:03:07;2.87;;;0.90;;
14247;SDS011;7208;49.826;6.004;2024-01-25T05:05:32;2.93;;;1.00;;
14247;SDS011;7208;49.826;6.004;2024-01-25T05:07:58;2.27;;;1.20;;
14247;SDS011;7208;49.826;6.004;2024-01-25T05:10:24;3.17;;;0.77;;
14247;SDS011;7208;49.826;6.004;2024-01-25T05:12:50;4.70;;;0.80;;
14247;SDS011;7208;49.826;6.004;2024-01-25T05:15:16;3.60;;;0.70;;
14247;SDS011;7208;49.826;6.004;2024-01-25T05:17:42;6.63;;;0.93;;
14247;SDS011;7208;49.826;6.004;2024-01-25T05:20:07;8.50;;;0.97;;
14247;SDS011;7208;49.826;6.004;2024-01-25T05:22:34;3.97;;;1.10;;
14247;SDS011;7208;49.826;6.004;2024-01-25T05:25:05;3.07;;;0.83;;
14247;SDS011;7208;49.826;6.004;2024-01-25T05:27:31;4.50;;;1.03;;
14247;SDS011;7208;49.826;6.004;2024-01-25T05:29:57;4.90;;;1.30;;
14247;SDS011;7208;49.826;6.004;2024-01-25T05:32:23;4.93;;;1.33;;
14247;SDS011;7208;49.826;6.004;2024-01-25T05:34:49;4.57;;;0.97;;
14247;SDS011;7208;49.826;6.004;2024-01-25T05:37:14;6.83;;;1.00;;
14247;SDS011;7208;49.826;6.004;2024-01-25T05:39:40;7.87;;;1.60;;
14247;SDS011;7208;49.826;6.004;2024-01-25T05:42:06;5.93;;;1.60;;
14247;SDS011;7208;49.826;6.004;2024-01-25T05:44:31;3.13;;;0.80;;
14247;SDS011;7208;49.826;6.004;2024-01-25T05:46:57;6.70;;;1.30;;
14247;SDS011;7208;49.826;6.004;2024-01-25T05:49:23;2.53;;;0.80;;
14247;SDS011;7208;49.826;6.004;2024-01-25T05:51:48;4.50;;;0.97;;
14247;SDS011;7208;49.826;6.004;2024-01-25T05:54:14;10.97;;;1.60;;
14247;SDS011;7208;49.826;6.004;2024-01-25T05:56:40;1.13;;;1.00;;
14247;SDS011;7208;49.826;6.004;2024-01-25T05:59:05;2.43;;;1.57;;
14247;SDS011;7208;49.826;6.004;2024-01-25T06:01:31;4.00;;;1.40;;
14247;SDS011;7208;49.826;6.004;2024-01-25T06:03:57;3.40;;;1.30;;
14247;SDS011;7208;49.826;6.004;2024-01-25T06:06:22;4.27;;;1.17;;
14247;SDS011;7208;49.826;6.004;2024-01-25T06:08:48;4.60;;;0.83;;
14247;SDS011;7208;49.826;6.004;2024-01-25T06:11:14;4.43;;;1.80;;
14247;SDS011;7208;49.826;6.004;2024-01-25T06:13:40;1.47;;;1.23;;
14247;SDS011;7208;49.826;6.004;2024-01-25T06:16:06;4.30;;;0.70;;
14247;SDS011;7208;49.826;6.004;2024-01-25T06:18:32;2.70;;;0.97;;
14247;SDS011;7208;49.826;6.004;2024-01-25T06:20:57;2.67;;;1.00;;
14247;SDS011;7208;49.826;6.004;2024-01-25T06:23:23;3.43;;;0.97;;
14247;SDS011;7208;49.826;6.004;2024-01-25T06:25:49;7.37;;;1.03;;
14247;SDS011;7208;49.826;6.004;2024-01-25T06:28:14;1.07;;;0.97;;
14247;SDS011;7208;49.826;6.004;2024-01-25T06:30:40;4.47;;;1.27;;
14247;SDS011;7208;49.826;6.004;2024-01-25T06:33:06;2.83;;;1.23;;
14247;SDS011;7208;49.826;6.004;2024-01-25T06:35:31;5.80;;;1.37;;
14247;SDS011;7208;49.826;6.004;2024-01-25T06:37:57;4.10;;;1.40;;
14247;SDS011;7208;49.826;6.004;2024-01-25T06:40:22;2.50;;;0.90;;
14247;SDS011;7208;49.826;6.004;2024-01-25T06:42:48;3.33;;;1.23;;
14247;SDS011;7208;49.826;6.004;2024-01-25T06:45:14;5.90;;;1.33;;
14247;SDS011;7208;49.826;6.004;2024-01-25T06:47:39;9.37;;;1.83;;
14247;SDS011;7208;49.826;6.004;2024-01-25T06:50:05;5.03;;;1.20;;
14247;SDS011;7208;49.826;6.004;2024-01-25T06:52:32;1.70;;;1.13;;
14247;SDS011;7208;49.826;6.004;2024-01-25T06:54:58;7.60;;;1.33;;
14247;SDS011;7208;49.826;6.004;2024-01-25T06:57:24;5.23;;;1.43;;
14247;SDS011;7208;49.826;6.004;2024-01-25T06:59:50;3.97;;;1.20;;
14247;SDS011;7208;49.826;6.004;2024-01-25T07:02:15;3.97;;;1.50;;
14247;SDS011;7208;49.826;6.004;2024-01-25T07:04:41;1.73;;;1.13;;
14247;SDS011;7208;49.826;6.004;2024-01-25T07:07:06;3.50;;;1.30;;
14247;SDS011;7208;49.826;6.004;2024-01-25T07:09:32;2.50;;;0.80;;
14247;SDS011;7208;49.826;6.004;2024-01-25T07:11:58;8.60;;;1.83;;
14247;SDS011;7208;49.826;6.004;2024-01-25T07:14:23;5.77;;;1.13;;
14247;SDS011;7208;49.826;6.004;2024-01-25T07:16:49;1.17;;;0.90;;
14247;SDS011;7208;49.826;6.004;2024-01-25T07:19:15;0.77;;;0.70;;
14247;SDS011;7208;49.826;6.004;2024-01-25T07:21:40;2.87;;;1.07;;
14247;SDS011;7208;49.826;6.004;2024-01-25T07:24:06;3.07;;;1.00;;
14247;SDS011;7208;49.826;6.004;2024-01-25T07:26:32;4.30;;;1.30;;
14247;SDS011;7208;49.826;6.004;2024-01-25T07:28:58;4.33;;;1.00;;
14247;SDS011;7208;49.826;6.004;2024-01-25T07:31:25;3.00;;;1.37;;
14247;SDS011;7208;49.826;6.004;2024-01-25T07:33:51;3.47;;;1.03;;
14247;SDS011;7208;49.826;6.004;2024-01-25T07:36:18;3.53;;;1.13;;
14247;SDS011;7208;49.826;6.004;2024-01-25T07:38:44;4.13;;;1.03;;
14247;SDS011;7208;49.826;6.004;2024-01-25T07:41:12;5.93;;;1.10;;
14247;SDS011;7208;49.826;6.004;2024-01-25T07:43:38;5.47;;;1.40;;
14247;SDS011;7208;49.826;6.004;2024-01-25T07:46:03;5.03;;;2.13;;
14247;SDS011;7208;49.826;6.004;2024-01-25T07:48:29;2.20;;;0.73;;
14247;SDS011;7208;49.826;6.004;2024-01-25T07:50:55;1.40;;;0.90;;
14247;SDS011;7208;49.826;6.004;2024-01-25T07:53:21;4.43;;;1.67;;
14247;SDS011;7208;49.826;6.004;2024-01-25T07:55:47;4.20;;;1.20;;
14247;SDS011;7208;49.826;6.004;2024-01-25T07:58:14;4.40;;;1.93;;
14247;SDS011;7208;49.826;6.004;2024-01-25T08:00:40;5.23;;;1.37;;
14247;SDS011;7208;49.826;6.004;2024-01-25T08:03:07;8.23;;;1.30;;
14247;SDS011;7208;49.826;6.004;2024-01-25T08:05:33;1.40;;;1.33;;
14247;SDS011;7208;49.826;6.004;2024-01-25T08:07:59;5.87;;;1.80;;
14247;SDS011;7208;49.826;6.004;2024-01-25T08:10:24;2.67;;;1.63;;
14247;SDS011;7208;49.826;6.004;2024-01-25T08:12:50;2.17;;;0.87;;
14247;SDS011;7208;49.826;6.004;2024-01-25T08:15:16;3.97;;;0.87;;
14247;SDS011;7208;49.826;6.004;2024-01-25T08:17:42;8.27;;;1.40;;
14247;SDS011;7208;49.826;6.004;2024-01-25T08:20:08;2.83;;;0.97;;
14247;SDS011;7208;49.826;6.004;2024-01-25T08:22:35;12.47;;;1.70;;
14247;SDS011;7208;49.826;6.004;2024-01-25T08:25:01;7.80;;;1.10;;
14247;SDS011;7208;49.826;6.004;2024-01-25T08:27:27;2.33;;;1.07;;
14247;SDS011;7208;49.826;6.004;2024-01-25T08:29:53;6.67;;;1.63;;
14247;SDS011;7208;49.826;6.004;2024-01-25T08:32:18;5.87;;;1.50;;
14247;SDS011;7208;49.826;6.004;2024-01-25T08:34:44;4.27;;;1.27;;
14247;SDS011;7208;49.826;6.004;2024-01-25T08:37:09;4.00;;;1.20;;
14247;SDS011;7208;49.826;6.004;2024-01-25T08:39:35;5.17;;;1.23;;
14247;SDS011;7208;49.826;6.004;2024-01-25T08:42:01;3.80;;;1.50;;
14247;SDS011;7208;49.826;6.004;2024-01-25T08:44:30;5.47;;;1.30;;
14247;SDS011;7208;49.826;6.004;2024-01-25T08:46:56;4.70;;;2.00;;
14247;SDS011;7208;49.826;6.004;2024-01-25T08:49:22;3.80;;;1.40;;
14247;SDS011;7208;49.826;6.004;2024-01-25T08:51:47;3.70;;;1.37;;
14247;SDS011;7208;49.826;6.004;2024-01-25T08:54:13;4.43;;;1.40;;
14247;SDS011;7208;49.826;6.004;2024-01-25T08:56:39;2.10;;;1.20;;
14247;SDS011;7208;49.826;6.004;2024-01-25T08:59:05;8.20;;;1.53;;
14247;SDS011;7208;49.826;6.004;2024-01-25T09:01:30;4.50;;;1.20;;
14247;SDS011;7208;49.826;6.004;2024-01-25T09:03:56;4.57;;;1.23;;
14247;SDS011;7208;49.826;6.004;2024-01-25T09:06:27;5.27;;;1.10;;
14247;SDS011;7208;49.826;6.004;2024-01-25T09:08:53;2.87;;;0.87;;
14247;SDS011;7208;49.826;6.004;2024-01-25T09:11:19;9.40;;;1.63;;
14247;SDS011;7208;49.826;6.004;2024-01-25T09:13:45;2.37;;;1.00;;
14247;SDS011;7208;49.826;6.004;2024-01-25T09:16:12;5.00;;;0.93;;
14247;SDS011;7208;49.826;6.004;2024-01-25T09:18:38;2.33;;;1.17;;
14247;SDS011;7208;49.826;6.004;2024-01-25T09:21:04;2.37;;;0.83;;
14247;SDS011;7208;49.826;6.004;2024-01-25T09:23:30;2.57;;;1.07;;
14247;SDS011;7208;49.826;6.004;2024-01-25T09:25:55;6.27;;;1.27;;
14247;SDS011;7208;49.826;6.004;2024-01-25T09:28:21;3.77;;;1.33;;
14247;SDS011;7208;49.826;6.004;2024-01-25T09:30:47;1.33;;;0.87;;
14247;SDS011;7208;49.826;6.004;2024-01-25T09:33:13;1.03;;;0.93;;
14247;SDS011;7208;49.826;6.004;2024-01-25T09:35:39;1.57;;;1.27;;
14247;SDS011;7208;49.826;6.004;2024-01-25T09:38:05;1.00;;;1.00;;
14247;SDS011;7208;49.826;6.004;2024-01-25T09:40:31;1.90;;;1.23;;
14247;SDS011;7208;49.826;6.004;2024-01-25T09:42:58;4.30;;;1.07;;
14247;SDS011;7208;49.826;6.004;2024-01-25T09:45:24;3.50;;;1.47;;
14247;SDS011;7208;49.826;6.004;2024-01-25T09:47:50;3.00;;;1.27;;
14247;SDS011;7208;49.826;6.004;2024-01-25T09:50:16;3.03;;;1.30;;
14247;SDS011;7208;49.826;6.004;2024-01-25T09:52:43;4.53;;;1.50;;
14247;SDS011;7208;49.826;6.004;2024-01-25T09:55:12;3.60;;;1.20;;
14247;SDS011;7208;49.826;6.004;2024-01-25T09:57:45;2.50;;;1.30;;
14247;SDS011;7208;49.826;6.004;2024-01-25T10:00:12;3.07;;;1.50;;
14247;SDS011;7208;49.826;6.004;2024-01-25T10:02:38;2.13;;;1.33;;
14247;SDS011;7208;49.826;6.004;2024-01-25T10:05:05;2.63;;;1.40;;
14247;SDS011;7208;49.826;6.004;2024-01-25T10:07:37;5.03;;;2.03;;
14247;SDS011;7208;49.826;6.004;2024-01-25T10:10:07;3.17;;;1.30;;
14247;SDS011;7208;49.826;6.004;2024-01-25T10:12:34;1.87;;;1.33;;
14247;SDS011;7208;49.826;6.004;2024-01-25T10:15:00;3.07;;;1.53;;
14247;SDS011;7208;49.826;6.004;2024-01-25T10:17:27;3.60;;;1.97;;
14247;SDS011;7208;49.826;6.004;2024-01-25T10:19:53;3.43;;;2.03;;
14247;SDS011;7208;49.826;6.004;2024-01-25T10:22:19;4.47;;;1.90;;
14247;SDS011;7208;49.826;6.004;2024-01-25T10:24:44;2.47;;;1.63;;
14247;SDS011;7208;49.826;6.004;2024-01-25T10:27:10;2.00;;;1.70;;
14247;SDS011;7208;49.826;6.004;2024-01-25T10:29:37;2.03;;;1.53;;
14247;SDS011;7208;49.826;6.004;2024-01-25T10:32:03;3.00;;;1.83;;
14247;SDS011;7208;49.826;6.004;2024-01-25T10:34:29;2.47;;;1.60;;
14247;SDS011;7208;49.826;6.004;2024-01-25T10:36:55;3.07;;;1.60;;
14247;SDS011;7208;49.826;6.004;2024-01-25T10:39:22;5.43;;;2.00;;
14247;SDS011;7208;49.826;6.004;2024-01-25T10:41:49;3.90;;;2.00;;
14247;SDS011;7208;49.826;6.004;2024-01-25T10:44:16;5.27;;;2.30;;
14247;SDS011;7208;49.826;6.004;2024-01-25T10:46:46;5.97;;;2.23;;
14247;SDS011;7208;49.826;6.004;2024-01-25T10:49:12;2.53;;;1.87;;
14247;SDS011;7208;49.826;6.004;2024-01-25T10:51:38;4.83;;;2.77;;
14247;SDS011;7208;49.826;6.004;2024-01-25T10:54:07;4.57;;;2.57;;
14247;SDS011;7208;49.826;6.004;2024-01-25T10:56:34;4.97;;;2.40;;
14247;SDS011;7208;49.826;6.004;2024-01-25T10:59:00;6.90;;;2.93;;
14247;SDS011;7208;49.826;6.004;2024-01-25T11:01:26;4.90;;;2.97;;
14247;SDS011;7208;49.826;6.004;2024-01-25T11:03:52;3.37;;;2.13;;
14247;SDS011;7208;49.826;6.004;2024-01-25T11:06:20;9.87;;;3.20;;
14247;SDS011;7208;49.826;6.004;2024-01-25T11:08:47;4.83;;;2.83;;
14247;SDS011;7208;49.826;6.004;2024-01-25T11:11:13;4.53;;;2.43;;
14247;SDS011;7208;49.826;6.004;2024-01-25T11:13:40;3.80;;;2.63;;
14247;SDS011;7208;49.826;6.004;2024-01-25T11:16:17;4.03;;;2.23;;
14247;SDS011;7208;49.826;6.004;2024-01-25T11:18:50;6.17;;;2.63;;
14247;SDS011;7208;49.826;6.004;2024-01-25T11:24:11;6.93;;;2.90;;
14247;SDS011;7208;49.826;6.004;2024-01-25T11:26:44;8.33;;;3.77;;
14247;SDS011;7208;49.826;6.004;2024-01-25T11:29:14;8.60;;;2.50;;
14247;SDS011;7208;49.826;6.004;2024-01-25T11:31:45;7.40;;;2.33;;
14247;SDS011;7208;49.826;6.004;2024-01-25T11:34:12;11.57;;;3.30;;
14247;SDS011;7208;49.826;6.004;2024-01-25T11:36:43;6.63;;;2.40;;
14247;SDS011;7208;49.826;6.004;2024-01-25T11:39:09;12.53;;;3.57;;
14247;SDS011;7208;49.826;6.004;2024-01-25T11:41:36;8.97;;;3.90;;
14247;SDS011;7208;49.826;6.004;2024-01-25T11:44:02;9.10;;;2.83;;
14247;SDS011;7208;49.826;6.004;2024-01-25T11:46:28;9.60;;;3.03;;
14247;SDS011;7208;49.826;6.004;2024-01-25T11:48:56;9.93;;;3.37;;
14247;SDS011;7208;49.826;6.004;2024-01-25T11:51:23;10.10;;;2.57;;
14247;SDS011;7208;49.826;6.004;2024-01-25T11:53:49;7.07;;;3.13;;
14247;SDS011;7208;49.826;6.004;2024-01-25T11:56:16;15.30;;;4.60;;
14247;SDS011;7208;49.826;6.004;2024-01-25T11:58:45;5.93;;;2.73;;
14247;SDS011;7208;49.826;6.004;2024-01-25T12:01:12;10.60;;;3.00;;
14247;SDS011;7208;49.826;6.004;2024-01-25T12:03:38;7.63;;;3.40;;
14247;SDS011;7208;49.826;6.004;2024-01-25T12:06:05;13.40;;;3.67;;
14247;SDS011;7208;49.826;6.004;2024-01-25T12:08:32;7.50;;;3.30;;
14247;SDS011;7208;49.826;6.004;2024-01-25T12:13:36;8.10;;;3.47;;
14247;SDS011;7208;49.826;6.004;2024-01-25T12:16:04;11.27;;;3.40;;
14247;SDS011;7208;49.826;6.004;2024-01-25T12:18:31;13.27;;;3.33;;
14247;SDS011;7208;49.826;6.004;2024-01-25T12:20:58;5.77;;;3.23;;
14247;SDS011;7208;49.826;6.004;2024-01-25T12:23:35;6.40;;;3.00;;
14247;SDS011;7208;49.826;6.004;2024-01-25T12:26:05;10.07;;;3.43;;
14247;SDS011;7208;49.826;6.004;2024-01-25T12:28:32;5.03;;;2.93;;
14247;SDS011;7208;49.826;6.004;2024-01-25T12:31:03;6.47;;;3.10;;
14247;SDS011;7208;49.826;6.004;2024-01-25T12:33:30;10.60;;;3.27;;
14247;SDS011;7208;49.826;6.004;2024-01-25T12:35:57;7.53;;;3.17;;
14247;SDS011;7208;49.826;6.004;2024-01-25T12:38:23;6.23;;;3.30;;
14247;SDS011;7208;49.826;6.004;2024-01-25T12:40:50;6.73;;;3.07;;
14247;SDS011;7208;49.826;6.004;2024-01-25T12:43:17;4.47;;;2.87;;
14247;SDS011;7208;49.826;6.004;2024-01-25T12:45:43;4.77;;;2.60;;
14247;SDS011;7208;49.826;6.004;2024-01-25T12:48:10;4.53;;;2.80;;
14247;SDS011;7208;49.826;6.004;2024-01-25T12:50:36;8.70;;;3.17;;
14247;SDS011;7208;49.826;6.004;2024-01-25T12:53:02;5.27;;;2.77;;
14247;SDS011;7208;49.826;6.004;2024-01-25T12:55:29;4.80;;;2.90;;
14247;SDS011;7208;49.826;6.004;2024-01-25T12:57:55;5.63;;;2.83;;
14247;SDS011;7208;49.826;6.004;2024-01-25T13:00:22;2.83;;;2.57;;
14247;SDS011;7208;49.826;6.004;2024-01-25T13:02:48;11.77;;;3.37;;
14247;SDS011;7208;49.826;6.004;2024-01-25T13:05:14;7.33;;;2.87;;
14247;SDS011;7208;49.826;6.004;2024-01-25T13:07:40;5.30;;;2.60;;
14247;SDS011;7208;49.826;6.004;2024-01-25T13:10:06;4.50;;;2.53;;
14247;SDS011;7208;49.826;6.004;2024-01-25T13:12:33;3.93;;;2.27;;
14247;SDS011;7208;49.826;6.004;2024-01-25T13:14:59;4.30;;;2.60;;
14247;SDS011;7208;49.826;6.004;2024-01-25T13:17:24;4.63;;;2.30;;
14247;SDS011;7208;49.826;6.004;2024-01-25T13:19:52;2.73;;;2.30;;
14247;SDS011;7208;49.826;6.004;2024-01-25T13:22:18;2.57;;;2.10;;
14247;SDS011;7208;49.826;6.004;2024-01-25T13:24:46;3.47;;;2.10;;
14247;SDS011;7208;49.826;6.004;2024-01-25T13:27:12;4.23;;;2.27;;
14247;SDS011;7208;49.826;6.004;2024-01-25T13:29:37;2.10;;;1.90;;
14247;SDS011;7208;49.826;6.004;2024-01-25T13:32:03;3.83;;;1.70;;
14247;SDS011;7208;49.826;6.004;2024-01-25T13:34:29;3.97;;;1.90;;
14247;SDS011;7208;49.826;6.004;2024-01-25T13:36:55;3.20;;;1.83;;
14247;SDS011;7208;49.826;6.004;2024-01-25T13:39:20;1.80;;;1.50;;
14247;SDS011;7208;49.826;6.004;2024-01-25T13:41:46;1.93;;;1.80;;
14247;SDS011;7208;49.826;6.004;2024-01-25T13:44:14;2.93;;;2.00;;
14247;SDS011;7208;49.826;6.004;2024-01-25T13:46:39;2.83;;;2.20;;
14247;SDS011;7208;49.826;6.004;2024-01-25T13:49:05;3.10;;;1.93;;
14247;SDS011;7208;49.826;6.004;2024-01-25T13:51:31;3.70;;;1.90;;
14247;SDS011;7208;49.826;6.004;2024-01-25T13:53:56;2.97;;;2.00;;
14247;SDS011;7208;49.826;6.004;2024-01-25T13:56:22;4.53;;;2.00;;
14247;SDS011;7208;49.826;6.004;2024-01-25T13:58:48;4.70;;;1.90;;
14247;SDS011;7208;49.826;6.004;2024-01-25T14:01:13;3.10;;;1.90;;
14247;SDS011;7208;49.826;6.004;2024-01-25T14:03:39;2.47;;;1.83;;
14247;SDS011;7208;49.826;6.004;2024-01-25T14:06:05;2.77;;;1.90;;
14247;SDS011;7208;49.826;6.004;2024-01-25T14:08:34;2.90;;;2.10;;
14247;SDS011;7208;49.826;6.004;2024-01-25T14:11:00;4.43;;;2.40;;
14247;SDS011;7208;49.826;6.004;2024-01-25T14:13:26;5.17;;;2.60;;
14247;SDS011;7208;49.826;6.004;2024-01-25T14:15:52;2.73;;;2.37;;
14247;SDS011;7208;49.826;6.004;2024-01-25T14:18:18;3.07;;;2.30;;
14247;SDS011;7208;49.826;6.004;2024-01-25T14:20:43;2.57;;;2.27;;
14247;SDS011;7208;49.826;6.004;2024-01-25T14:23:09;2.47;;;2.07;;
14247;SDS011;7208;49.826;6.004;2024-01-25T14:25:35;4.83;;;2.20;;
14247;SDS011;7208;49.826;6.004;2024-01-25T14:28:00;2.43;;;2.00;;
14247;SDS011;7208;49.826;6.004;2024-01-25T14:30:26;3.43;;;2.43;;
14247;SDS011;7208;49.826;6.004;2024-01-25T14:32:52;6.60;;;2.67;;
14247;SDS011;7208;49.826;6.004;2024-01-25T14:35:19;4.43;;;2.70;;
14247;SDS011;7208;49.826;6.004;2024-01-25T14:37:45;4.50;;;2.57;;
14247;SDS011;7208;49.826;6.004;2024-01-25T14:40:10;5.63;;;2.40;;
14247;SDS011;7208;49.826;6.004;2024-01-25T14:42:36;6.87;;;2.80;;
14247;SDS011;7208;49.826;6.004;2024-01-25T14:45:03;2.87;;;2.13;;
14247;SDS011;7208;49.826;6.004;2024-01-25T14:47:30;5.80;;;2.40;;
14247;SDS011;7208;49.826;6.004;2024-01-25T14:49:55;5.20;;;2.40;;
14247;SDS011;7208;49.826;6.004;2024-01-25T14:52:21;4.53;;;2.20;;
14247;SDS011;7208;49.826;6.004;2024-01-25T14:54:47;4.40;;;2.63;;
14247;SDS011;7208;49.826;6.004;2024-01-25T14:57:12;3.47;;;3.17;;
14247;SDS011;7208;49.826;6.004;2024-01-25T14:59:38;2.47;;;2.20;;